Flight Track Log - Related Links

Times and Time Zones

All times are in EDT time to prevent confusion due to time zone crossing. See the N935SS flight status page for this flight to view local times or setup timezone preferences in your user account.

Time Position Orientation Groundspeed Altitude Reporting Facility
EDT Latitude Longitude Course Direction KTS MPH feet Rate Location/Type
Mon 06:25:27 PM 27.2525 -80.2444 114° Southeast 225 259 4,600  Level Miami Center
Mon 06:26:27 PM 27.2267 -80.1806 114° Southeast 228 262 5,900 1,050 Climbing Miami Center
Mon 06:27:27 PM 27.1994 -80.1028 111° Southeast 254 292 6,700 1,400 Climbing Miami Center
Mon 06:28:27 PM 27.1994 -80.0047 90° East 279 321 8,700 2,350 Climbing Miami Center
Mon 06:29:27 PM 27.2222 -79.9094 75° East 297 342 11,400 3,000 Climbing Miami Center
Mon 06:30:27 PM 27.2472 -79.8167 73° East 302 348 14,700 2,600 Climbing Miami Center
Mon 06:31:27 PM 27.2719 -79.7239 73° East 322 371 16,600 1,950 Climbing Miami Center
Mon 06:32:27 PM 27.3058 -79.5986 73° East 347 399 18,600 1,900 Climbing Miami Center
Mon 06:33:27 PM 27.3372 -79.4825 73° East 378 435 20,400 1,750 Climbing Miami Center
Mon 06:34:27 PM 27.3686 -79.3592 74° East 401 461 22,100 1,300 Climbing Miami Center
Mon 06:35:27 PM 27.4019 -79.2428 72° East 420 483 23,000 450 Climbing Miami Center
Mon 06:36:27 PM 27.4394 -79.1056 73° East 435 501 23,000 750 Level Miami Center
Mon 06:37:27 PM 27.4794 -78.9542 73° East 455 524 24,500 1,500 Climbing Miami Center
Mon 06:38:27 PM 27.5417 -78.8406 58° Northeast 436 502 26,000 1,600 Climbing Miami Center
Mon 06:39:27 PM 27.6244 -78.7389 47° Northeast 436 502 27,700 1,600 Climbing Miami Center
Mon 06:40:27 PM 27.7008 -78.6461 47° Northeast 441 507 29,200 1,450 Climbing Miami Center
Mon 06:41:27 PM 27.7919 -78.5372 47° Northeast 446 513 30,600 1,150 Climbing Miami Center
Mon 06:42:27 PM 27.8744 -78.4328 48° Northeast 451 519 31,500 1,200 Climbing Miami Center
Mon 06:43:27 PM 27.9919 -78.3686 26° Northeast 466 536 33,000 1,450 Climbing Miami Center
Mon 06:44:27 PM 28.1153 -78.3514 North 436 502 34,400 1,400 Climbing Miami Center
Mon 06:45:27 PM 28.2431 -78.3342 North 447 514 35,800 1,400 Climbing Miami Center
Mon 06:46:27 PM 28.3703 -78.3194 North 447 514 37,200 1,400 Climbing Miami Center
Mon 06:47:27 PM 28.4958 -78.3044 North 447 514 38,600 1,400 Climbing Miami Center
Mon 06:48:27 PM 28.6128 -78.2894 North 442 509 40,000 950 Climbing Miami Center
Mon 06:49:27 PM 28.7383 -78.2744 North 442 509 40,500 500 Climbing Miami Center
Mon 06:50:27 PM 28.8636 -78.2569 North 447 514 41,000 250 Climbing Miami Center
Mon 06:51:27 PM 28.9911 -78.2372 North 453 521 41,000  Level Miami Center
Mon 06:52:27 PM 29.1247 -78.2200 North 466 536 41,000  Level Miami Center
Mon 06:53:27 PM 29.2606 -78.2025 North 481 554 41,000  Level Miami Center
Mon 06:54:27 PM 29.3900 -78.1850 North 480 552 41,000  Level Miami Center
Mon 06:55:27 PM 29.5236 -78.1653 North 485 558 41,000  Level Miami Center
Mon 06:56:27 PM 29.6594 -78.1478 North 478 550 41,000  Level Miami Center
Mon 06:57:27 PM 29.7992 -78.1350 North 483 556 41,000  Level Miami Center
Mon 06:58:09 PM 29.9036 -78.1178 North 477 549 41,000  Level Jacksonville Center
Mon 06:59:09 PM 30.0281 -78.0925 10° North 508 585 41,000  Level Jacksonville Center
Mon 07:00:09 PM 30.1672 -78.0783 North 492 566 41,000  Level Jacksonville Center
Mon 07:01:09 PM 30.3014 -78.0403 14° North 494 568 41,000  Level Jacksonville Center
Mon 07:02:09 PM 30.4208 -77.9981 17° North 489 563 41,000  Level Jacksonville Center
Mon 07:03:09 PM 30.5531 -77.9600 14° North 489 563 41,000  Level Jacksonville Center
Mon 07:04:09 PM 30.6850 -77.9219 14° North 489 563 41,000  Level Jacksonville Center
Mon 07:05:09 PM 30.8189 -77.8714 18° North 489 563 41,000  Level Jacksonville Center
Mon 07:06:09 PM 30.9508 -77.8353 13° North 489 563 41,000  Level Jacksonville Center
Mon 07:07:09 PM 31.0831 -77.7967 14° North 489 563 41,000  Level Jacksonville Center
Mon 07:08:09 PM 31.2153 -77.7628 12° North 489 563 41,000  Level Jacksonville Center
Mon 07:09:09 PM 31.3467 -77.7117 18° North 489 563 41,000  Level Jacksonville Center
Mon 07:10:09 PM 31.4828 -77.6675 15° North 489 563 41,000  Level Jacksonville Center
Mon 07:11:09 PM 31.6147 -77.6333 12° North 489 563 41,000  Level Jacksonville Center
Mon 07:12:09 PM 31.7511 -77.5964 13° North 489 563 41,000  Level Jacksonville Center
Mon 07:13:09 PM 31.8847 -77.5494 17° North 489 563 41,000  Level Jacksonville Center
Mon 07:14:09 PM 32.0228 -77.5072 15° North 489 563 41,000  Level Jacksonville Center
Mon 07:15:09 PM 32.1567 -77.4650 15° North 489 563 41,000  Level Jacksonville Center
Mon 07:16:09 PM 32.2925 -77.4200 16° North 494 568 41,000  Level Jacksonville Center
Mon 07:17:09 PM 32.4283 -77.3800 14° North 494 568 41,000  Level Jacksonville Center
Mon 07:18:09 PM 32.5622 -77.3397 14° North 499 574 41,000  Level Jacksonville Center
Mon 07:19:09 PM 32.7000 -77.2917 16° North 499 574 41,000  Level Jacksonville Center
Mon 07:21:19 PM 32.9950 -77.1983 15° North 498 573 41,000  Level Washington Center
Mon 07:22:19 PM 33.1292 -77.1564 15° North 498 573 41,000  Level Washington Center
Mon 07:23:19 PM 33.2631 -77.1117 16° North 498 573 41,000  Level Washington Center
Mon 07:24:19 PM 33.3992 -77.0694 15° North 498 573 41,000  Level Washington Center
Mon 07:25:19 PM 33.5375 -77.0219 16° North 498 573 41,000  Level Washington Center
Mon 07:26:19 PM 33.6714 -76.9794 15° North 498 573 41,000  Level Washington Center
Mon 07:27:19 PM 33.8097 -76.9367 14° North 498 573 41,000  Level Washington Center
Mon 07:28:19 PM 33.9625 -76.8842 16° North 498 573 41,000  Level Washington Center
Mon 07:29:19 PM 34.0986 -76.8411 15° North 498 573 41,000  Level Washington Center
Mon 07:30:19 PM 34.2325 -76.7953 16° North 498 573 41,000  Level Washington Center
Mon 07:31:19 PM 34.3728 -76.7494 15° North 498 573 41,000  Level Washington Center
Mon 07:32:19 PM 34.5108 -76.7061 15° North 503 579 41,000  Level Washington Center
Mon 07:33:19 PM 34.6511 -76.6575 16° North 513 590 41,000  Level Washington Center
Mon 07:34:19 PM 34.7872 -76.6086 16° North 513 590 41,000  Level Washington Center
Mon 07:35:19 PM 34.9272 -76.5650 14° North 513 590 41,000  Level Washington Center
Mon 07:36:19 PM 35.0675 -76.5183 15° North 513 590 41,000  Level Washington Center
Mon 07:37:19 PM 35.1931 -76.4739 16° North 513 590 41,000  Level Washington Center
Mon 07:38:19 PM 35.3417 -76.4172 17° North 506 582 41,000  Level Washington Center
Mon 07:39:19 PM 35.4794 -76.3750 14° North 506 582 41,000  Level Washington Center
Mon 07:40:19 PM 35.6175 -76.3278 16° North 506 582 41,000  Level Washington Center
Mon 07:41:19 PM 35.7533 -76.2806 16° North 506 582 41,000  Level Washington Center
Mon 07:42:19 PM 35.8872 -76.2331 16° North 501 577 41,000  Level Washington Center
Mon 07:43:19 PM 36.0231 -76.1903 14° North 501 577 41,000  Level Washington Center
Mon 07:44:19 PM 36.1611 -76.1425 16° North 501 577 41,000  Level Washington Center
Mon 07:45:19 PM 36.2969 -76.0944 16° North 501 577 41,000  Level Washington Center
Mon 07:46:19 PM 36.4347 -76.0464 16° North 501 577 41,000  Level Washington Center
Mon 07:47:19 PM 36.5581 -76.0031 16° North 501 577 41,000  Level Washington Center
Mon 07:48:19 PM 36.7083 -75.9494 16° North 501 577 41,000  Level Washington Center
Mon 07:49:19 PM 36.8461 -75.9008 16° North 501 577 41,000  Level Washington Center
Mon 07:50:19 PM 36.9547 -75.8622 16° North 501 577 41,000  Level Washington Center
Mon 07:51:19 PM 37.1114 -75.8081 15° North 513 590 41,000  Level Washington Center
Mon 07:52:19 PM 37.2511 -75.7589 16° North 513 590 41,000  Level Washington Center
Mon 07:53:19 PM 37.3867 -75.7094 16° North 513 590 41,000  Level Washington Center
Mon 07:54:19 PM 37.5244 -75.6625 15° North 513 590 41,000  Level Washington Center
Mon 07:55:19 PM 37.6600 -75.6128 16° North 513 590 41,000  Level Washington Center
Mon 07:56:19 PM 37.7997 -75.5656 15° North 513 590 41,000  Level Washington Center
Mon 07:57:19 PM 37.9333 -75.5181 16° North 508 585 41,000  Level Washington Center
Mon 07:58:19 PM 38.0689 -75.4625 18° North 508 585 41,000  Level Washington Center
Mon 07:59:19 PM 38.1981 -75.3831 26° Northeast 508 585 41,000  Level Washington Center
Mon 08:00:19 PM 38.3269 -75.3033 26° Northeast 508 585 41,000  Level Washington Center
Mon 08:01:19 PM 38.4519 -75.2100 30° Northeast 508 585 41,000  Level Washington Center
Mon 08:02:19 PM 38.5808 -75.1350 24° Northeast 508 585 41,000  Level Washington Center
Mon 08:03:19 PM 38.7097 -75.0517 27° Northeast 508 585 41,000  Level Washington Center
Mon 08:04:19 PM 38.8367 -74.9706 26° Northeast 508 585 41,000 -1,200 Level Washington Center
Mon 08:05:19 PM 38.9694 -74.8842 27° Northeast 514 592 38,600 -2,650 Descending Washington Center
Mon 08:06:19 PM 39.1086 -74.7864 29° Northeast 534 615 35,700 -2,950 Descending Washington Center
Mon 08:07:19 PM 39.2306 -74.6644 38° Northeast 549 632 32,700 -3,075 Descending Washington Center
Mon 08:07:39 PM 39.2711 -74.6219 39° Northeast 538 619 31,600 -2,925 Descending New York Center
Mon 08:08:39 PM 39.3853 -74.5044 38° Northeast 516 594 28,800 -2,800 Descending New York Center
Mon 08:09:39 PM 39.5017 -74.3814 39° Northeast 521 600 26,000 -2,380 Descending New York Center
Mon 08:10:40 PM 39.6072 -74.2683 40° Northeast 507 583 24,000 -984 Descending New York Center
Mon 08:11:41 PM 39.7106 -74.1603 39° Northeast 485 558 24,000  Level New York Center
Mon 08:12:39 PM 39.8094 -74.0542 39° Northeast 472 543 24,000 -153 Level New York Center
Mon 08:13:39 PM 39.9083 -73.9506 39° Northeast 461 531 23,700 -1,091 Descending New York Center
Mon 08:14:40 PM 40.0069 -73.8439 40° Northeast 461 531 21,800 -1,857 Descending New York Center
Mon 08:16:27 PM 40.1617 -73.6756 40° Northeast 422 486 18,500 -1,689 Descending Boston Center
Mon 08:17:27 PM 40.2375 -73.6008 37° Northeast 396 456 17,100 -750 Descending Boston Center
Mon 08:18:27 PM 40.3175 -73.5122 40° Northeast 376 433 17,000 -50 Descending Boston Center
Mon 08:19:27 PM 40.4286 -73.4406 26° Northeast 363 418 17,000  Level Boston Center
Mon 08:20:27 PM 40.5292 -73.4011 17° North 363 418 17,000 -50 Level Boston Center
Mon 08:21:27 PM 40.6294 -73.3669 14° North 363 418 16,900 -574 Descending Boston Center
Mon 08:22:43 PM 40.7333 -73.3167 20° North 333 383 15,700 -1,103 Descending New York TRACON
Mon 08:23:43 PM 40.8167 -73.2667 24° Northeast 330 380 14,400 -1,350 Descending New York TRACON
Mon 08:24:43 PM 40.8667 -73.1667 57° Northeast 318 366 13,000 -1,400 Descending New York TRACON
Mon 08:25:43 PM 40.9167 -73.0667 56° Northeast 319 367 11,600 -1,500 Descending New York TRACON
Mon 08:26:43 PM 40.9833 -73.0500 11° North 316 364 10,000 -1,550 Descending New York TRACON
Mon 08:27:43 PM 41.0333 -73.1167 315° West 267 307 8,500 -1,526 Descending New York TRACON
Mon 08:28:37 PM 41.0667 -73.2000 298° West 283 326 7,100 -1,500 Descending New York TRACON
Mon 08:29:43 PM 41.1000 -73.3000 294° West 273 314 5,500 -1,429 Descending New York TRACON
Mon 08:30:43 PM 41.1333 -73.3833 298° West 259 298 4,100 -1,150 Descending New York TRACON
Mon 08:31:43 PM 41.1667 -73.4667 298° West 237 273 3,200 -500 Descending New York TRACON
Mon 08:32:43 PM 41.1833 -73.5500 285° West 234 269 3,100 -200 Descending New York TRACON
Mon 08:33:43 PM 41.2167 -73.6333 298° West 229 264 2,800 -300 Descending New York TRACON

Login

Don't have an account? Register now (free) for customized features, flight alerts, and more!